Time;durP1;ratioP1;P1;durP2;ratioP2;P2;SDS_P1;SDS_P2;PMS_P1;PMS_P2;Temp;Humidity;BMP_temperature;BMP_pressure;BME280_temperature;BME280_humidity;BME280_pressure;Samples;Min_cycle;Max_cycle;Signal;HPM_P1;HPM_P2
2023/05/26 00:00:58;;;;;;;23.53;5.77;;;;;;;7.32;100.00;102474.81;7384405;19;20415;-39
2023/05/26 00:03:29;;;;;;;31.83;5.03;;;;;;;7.36;100.00;102470.84;7389845;19;20423;-39
2023/05/26 00:06:00;;;;;;;37.97;5.20;;;;;;;7.30;100.00;102467.00;7387338;19;20457;-40
2023/05/26 00:08:29;;;;;;;36.17;7.27;;;;;;;7.25;100.00;102468.31;7390460;19;20471;-38
2023/05/26 00:11:05;;;;;;;19.10;5.00;;;;;;;7.12;100.00;102457.75;7386140;19;20411;-36
2023/05/26 00:13:34;;;;;;;21.03;5.17;;;;;;;7.09;100.00;102458.44;7389049;19;20789;-37
2023/05/26 00:16:04;;;;;;;24.10;4.37;;;;;;;7.09;100.00;102460.09;7386697;19;20423;-38
2023/05/26 00:18:34;;;;;;;22.17;5.37;;;;;;;7.05;100.00;102464.06;7388804;19;20444;-38
2023/05/26 00:21:03;;;;;;;24.23;4.77;;;;;;;6.89;100.00;102467.91;7387320;19;20468;-37
2023/05/26 00:23:33;;;;;;;31.13;5.60;;;;;;;6.86;100.00;102466.75;7388732;19;20422;-36
2023/05/26 00:26:07;;;;;;;30.03;5.77;;;;;;;6.86;100.00;102465.09;7386228;19;20440;-40
2023/05/26 00:28:37;;;;;;;20.60;5.13;;;;;;;6.82;100.00;102455.31;7388636;19;20399;-36
2023/05/26 00:31:06;;;;;;;24.57;5.13;;;;;;;6.79;100.00;102455.09;7390538;19;20518;-37
2023/05/26 00:33:36;;;;;;;27.50;5.73;;;;;;;6.75;100.00;102447.88;7394669;19;20495;-36
2023/05/26 00:36:06;;;;;;;43.27;5.90;;;;;;;6.66;100.00;102431.72;7391305;19;20411;-37
2023/05/26 00:38:35;;;;;;;24.30;4.93;;;;;;;6.67;100.00;102415.56;7395264;19;20384;-37
2023/05/26 00:41:08;;;;;;;28.67;6.33;;;;;;;6.58;100.00;102419.16;7392177;19;20443;-37
2023/05/26 00:43:37;;;;;;;19.57;4.97;;;;;;;6.52;100.00;102402.34;7395375;19;21423;-36
2023/05/26 00:46:07;;;;;;;23.00;5.07;;;;;;;6.46;100.00;102405.31;7391640;19;20430;-37
2023/05/26 00:48:37;;;;;;;26.63;6.10;;;;;;;6.48;100.00;102402.06;7394963;19;20431;-37
2023/05/26 00:51:06;;;;;;;24.27;4.20;;;;;;;6.50;100.00;102398.75;7392305;19;20429;-36
2023/05/26 00:53:37;;;;;;;30.57;6.10;;;;;;;6.36;100.00;102401.03;7396301;19;20439;-36
2023/05/26 00:56:10;;;;;;;25.80;5.40;;;;;;;6.37;100.00;102401.94;7394565;19;20451;-36
2023/05/26 00:58:40;;;;;;;26.17;5.17;;;;;;;6.26;100.00;102401.91;7394286;19;20387;-36
2023/05/26 01:01:10;;;;;;;32.67;6.23;;;;;;;6.20;100.00;102401.38;7392448;19;20414;-36
2023/05/26 01:03:40;;;;;;;32.53;5.60;;;;;;;6.18;100.00;102405.47;7395262;19;20449;-38
2023/05/26 01:06:10;;;;;;;27.87;5.30;;;;;;;6.15;100.00;102401.00;7392426;19;21256;-40
2023/05/26 01:08:39;;;;;;;23.53;5.43;;;;;;;6.15;100.00;102405.25;7396623;19;20404;-39
2023/05/26 01:11:16;;;;;;;23.07;5.33;;;;;;;6.14;100.00;102405.97;7393516;19;20420;-38
2023/05/26 01:13:50;;;;;;;24.93;5.13;;;;;;;6.07;100.00;102410.56;7392367;19;20982;-40
2023/05/26 01:16:22;;;;;;;23.03;5.90;;;;;;;6.05;100.00;102414.69;7391810;19;20423;-38
2023/05/26 01:18:56;;;;;;;25.83;5.17;;;;;;;5.99;100.00;102424.34;7396526;19;20391;-38
2023/05/26 01:21:29;;;;;;;27.50;5.03;;;;;;;5.91;100.00;102416.00;7393581;19;20490;-37
2023/05/26 01:24:13;;;;;;;33.03;6.20;;;;;;;5.90;100.00;102418.44;7393591;19;20767;-39
2023/05/26 01:26:55;;;;;;;20.27;5.20;;;;;;;5.85;100.00;102412.00;7391859;19;20478;-39
2023/05/26 01:29:28;;;;;;;27.20;5.00;;;;;;;5.83;100.00;102414.44;7393501;19;20491;-39
2023/05/26 01:32:07;;;;;;;29.07;5.43;;;;;;;5.84;100.00;102413.66;7391964;19;20492;-39
2023/05/26 01:34:37;;;;;;;29.27;4.63;;;;;;;5.77;100.00;102412.25;7393616;19;20994;-39
2023/05/26 01:37:07;;;;;;;33.70;4.73;;;;;;;5.67;100.00;102407.97;7392425;19;20458;-38
2023/05/26 01:39:37;;;;;;;27.83;6.43;;;;;;;5.61;100.00;102409.09;7393248;19;20404;-41
2023/05/26 01:42:11;;;;;;;19.73;4.50;;;;;;;5.56;100.00;102411.25;7390575;19;20440;-37
2023/05/26 01:45:06;;;;;;;24.20;4.07;;;;;;;5.53;100.00;102404.19;7392684;19;20456;-38
2023/05/26 01:47:36;;;;;;;14.53;4.43;;;;;;;5.52;100.00;102406.59;7391795;19;20528;-39
2023/05/26 01:50:08;;;;;;;25.47;4.10;;;;;;;5.52;100.00;102402.41;7398087;19;20397;-38
2023/05/26 01:52:40;;;;;;;19.37;5.00;;;;;;;5.40;100.00;102399.63;7393941;19;20448;-38
2023/05/26 01:55:11;;;;;;;24.13;5.03;;;;;;;5.37;100.00;102404.50;7393238;19;20432;-37
2023/05/26 01:57:45;;;;;;;31.20;5.13;;;;;;;5.37;100.00;102406.13;7393816;19;20430;-38
2023/05/26 02:00:17;;;;;;;30.70;5.23;;;;;;;5.40;100.00;102403.88;7389932;19;20395;-38
2023/05/26 02:02:47;;;;;;;32.77;4.60;;;;;;;5.39;100.00;102399.50;7391090;19;20395;-39
2023/05/26 02:05:17;;;;;;;29.87;6.13;;;;;;;5.35;100.00;102406.03;7390445;19;20415;-40
2023/05/26 02:07:48;;;;;;;20.53;4.87;;;;;;;5.37;100.00;102412.16;7391386;19;20402;-38
2023/05/26 02:10:17;;;;;;;26.13;4.30;;;;;;;5.30;100.00;102411.47;7388259;19;20405;-38
2023/05/26 02:12:47;;;;;;;31.40;4.97;;;;;;;5.29;100.00;102404.56;7393504;19;20777;-37
2023/05/26 02:15:20;;;;;;;25.10;5.90;;;;;;;5.25;100.00;102409.41;7389518;19;20411;-38
2023/05/26 02:17:53;;;;;;;27.93;5.00;;;;;;;5.25;100.00;102414.53;7392104;19;20389;-39
2023/05/26 02:20:23;;;;;;;35.30;5.27;;;;;;;5.23;100.00;102426.28;7389359;19;20414;-39
2023/05/26 02:22:53;;;;;;;31.73;4.90;;;;;;;5.18;100.00;102427.50;7391263;19;20396;-38
2023/05/26 02:25:22;;;;;;;25.07;4.83;;;;;;;5.23;100.00;102427.94;7389851;19;20386;-39
2023/05/26 02:27:52;;;;;;;38.80;6.53;;;;;;;5.22;100.00;102427.03;7391857;19;20468;-38
2023/05/26 02:30:24;;;;;;;13.50;3.57;;;;;;;5.21;100.00;102435.47;7391557;19;20505;-40
2023/05/26 02:32:54;;;;;;;27.60;4.93;;;;;;;5.14;100.00;102434.03;7391571;19;20400;-38
2023/05/26 02:35:23;;;;;;;18.97;4.37;;;;;;;5.08;100.00;102435.13;7388809;19;20741;-40
2023/05/26 02:37:53;;;;;;;28.93;5.33;;;;;;;5.11;100.00;102440.50;7393737;19;20402;-38
2023/05/26 02:40:23;;;;;;;28.83;4.90;;;;;;;5.03;100.00;102447.50;7389463;19;20405;-38
2023/05/26 02:42:52;;;;;;;24.40;4.40;;;;;;;4.97;100.00;102452.06;7390688;19;20486;-37
2023/05/26 02:45:25;;;;;;;23.57;4.60;;;;;;;4.93;100.00;102444.88;7388649;19;20398;-41
2023/05/26 02:47:54;;;;;;;21.60;4.37;;;;;;;4.92;100.00;102443.06;7391087;19;20401;-39
2023/05/26 02:50:24;;;;;;;29.57;4.97;;;;;;;4.91;100.00;102447.28;7388041;19;20389;-37
2023/05/26 02:52:54;;;;;;;30.70;4.90;;;;;;;4.85;100.00;102447.63;7390759;19;20480;-40
2023/05/26 02:55:24;;;;;;;33.87;6.30;;;;;;;4.85;100.00;102449.25;7389538;19;20400;-38
2023/05/26 02:57:54;;;;;;;25.40;4.27;;;;;;;4.80;100.00;102442.81;7391172;19;20403;-38
2023/05/26 03:00:27;;;;;;;26.03;4.20;;;;;;;4.80;100.00;102445.38;7387401;19;20424;-37
2023/05/26 03:02:56;;;;;;;33.80;7.23;;;;;;;4.78;100.00;102450.38;7389562;19;20403;-40
2023/05/26 03:05:26;;;;;;;30.00;5.13;;;;;;;4.76;100.00;102449.31;7388121;19;20390;-37
2023/05/26 03:07:56;;;;;;;29.73;5.07;;;;;;;4.73;100.00;102432.03;7391157;19;20390;-38
2023/05/26 03:10:25;;;;;;;22.30;4.50;;;;;;;4.68;100.00;102443.47;7389438;19;20382;-37
2023/05/26 03:12:55;;;;;;;28.87;4.77;;;;;;;4.69;100.00;102429.06;7389706;19;20400;-38
2023/05/26 03:15:28;;;;;;;34.90;5.33;;;;;;;4.66;100.00;102437.34;7389837;19;20464;-36
2023/05/26 03:17:57;;;;;;;35.13;5.37;;;;;;;4.58;100.00;102430.63;7392043;19;20394;-38
2023/05/26 03:20:27;;;;;;;23.33;4.60;;;;;;;4.63;100.00;102429.41;7387699;19;20410;-38
2023/05/26 03:22:57;;;;;;;21.90;4.50;;;;;;;4.44;100.00;102440.47;7390940;19;20397;-37
2023/05/26 03:25:26;;;;;;;25.57;6.27;;;;;;;4.41;100.00;102431.59;7388766;19;20813;-39
2023/05/26 03:27:57;;;;;;;31.40;5.07;;;;;;;4.45;100.00;102428.56;7390280;19;20456;-40
2023/05/26 03:30:29;;;;;;;18.50;4.97;;;;;;;4.46;100.00;102427.81;7384831;19;20469;-39
2023/05/26 03:33:00;;;;;;;31.03;4.87;;;;;;;4.44;100.00;102421.66;7389657;19;20471;-37
2023/05/26 03:35:30;;;;;;;32.30;4.80;;;;;;;4.24;100.00;102428.34;7387761;19;21047;-37
2023/05/26 03:37:59;;;;;;;24.63;5.27;;;;;;;4.24;100.00;102424.88;7391735;19;20451;-38
2023/05/26 03:40:29;;;;;;;28.93;5.37;;;;;;;4.19;100.00;102429.56;7386775;19;20401;-37
2023/05/26 03:43:01;;;;;;;30.10;5.03;;;;;;;4.21;100.00;102427.16;7389260;19;20392;-40
2023/05/26 03:45:33;;;;;;;30.37;5.50;;;;;;;4.29;100.00;102419.47;7391463;19;20396;-37
2023/05/26 03:48:03;;;;;;;25.07;4.87;;;;;;;4.24;100.00;102415.56;7390609;19;20407;-38
2023/05/26 03:50:32;;;;;;;24.50;8.70;;;;;;;4.24;100.00;102420.69;7388254;19;20798;-37
2023/05/26 03:53:02;;;;;;;28.93;4.70;;;;;;;4.11;100.00;102431.38;7389835;19;20467;-37
2023/05/26 03:55:33;;;;;;;40.73;6.10;;;;;;;4.06;100.00;102427.53;7386944;19;21604;-37
2023/05/26 03:58:02;;;;;;;27.10;5.03;;;;;;;3.99;100.00;102430.25;7390053;19;20779;-38
2023/05/26 04:00:35;;;;;;;35.13;5.03;;;;;;;4.07;100.00;102424.22;7387698;19;20435;-37
2023/05/26 04:03:04;;;;;;;34.50;5.03;;;;;;;4.19;100.00;102422.81;7388866;19;20391;-38
2023/05/26 04:05:34;;;;;;;30.57;6.10;;;;;;;4.49;100.00;102412.75;7388660;19;20412;-36
2023/05/26 04:08:04;;;;;;;68.33;21.63;;;;;;;5.04;100.00;102402.34;7389467;19;20472;-36
2023/05/26 04:10:33;;;;;;;42.63;6.00;;;;;;;4.99;100.00;102410.50;7385989;19;20407;-38
2023/05/26 04:13:03;;;;;;;41.10;12.27;;;;;;;5.10;100.00;102410.56;7385873;19;20389;-37
2023/05/26 04:15:35;;;;;;;52.73;15.60;;;;;;;5.36;100.00;102412.03;7389981;19;20425;-37
2023/05/26 04:18:05;;;;;;;29.43;6.97;;;;;;;5.34;100.00;102416.13;7394347;19;20767;-38
2023/05/26 04:20:35;;;;;;;23.57;6.23;;;;;;;5.63;100.00;102420.34;7391626;19;20423;-38
2023/05/26 04:23:04;;;;;;;35.20;6.47;;;;;;;5.33;100.00;102445.03;7393531;19;20425;-37
2023/05/26 04:25:34;;;;;;;16.97;5.10;;;;;;;5.34;100.00;102449.41;7389304;19;20418;-39
2023/05/26 04:28:04;;;;;;;28.67;5.07;;;;;;;5.04;100.00;102458.63;7393307;19;20770;-39
2023/05/26 04:30:39;;;;;;;20.87;4.30;;;;;;;4.99;100.00;102471.88;7389999;19;20398;-36
2023/05/26 04:33:09;;;;;;;20.90;5.43;;;;;;;5.52;100.00;102465.50;7391839;19;20416;-38
2023/05/26 04:35:40;;;;;;;23.97;4.80;;;;;;;5.83;100.00;102464.78;7391565;19;20408;-38
2023/05/26 04:38:12;;;;;;;19.50;4.50;;;;;;;5.76;100.00;102478.69;7391878;19;20402;-38
2023/05/26 04:40:42;;;;;;;31.97;5.10;;;;;;;5.86;100.00;102488.09;7389831;19;20429;-38
2023/05/26 04:43:12;;;;;;;27.30;4.73;;;;;;;6.41;100.00;102488.63;7392022;19;20459;-40
2023/05/26 04:45:44;;;;;;;24.00;5.50;;;;;;;6.29;100.00;102514.06;7388964;19;20540;-37
2023/05/26 04:48:14;;;;;;;25.37;4.90;;;;;;;6.20;100.00;102526.97;7393595;19;20412;-37
2023/05/26 04:50:45;;;;;;;27.83;4.40;;;;;;;6.79;100.00;102524.34;7391115;19;20504;-39
2023/05/26 04:53:14;;;;;;;27.80;5.67;;;;;;;7.35;100.00;102540.94;7392802;19;20490;-37
2023/05/26 04:55:44;;;;;;;21.63;4.70;;;;;;;6.51;100.00;102575.81;7388927;19;20514;-39
2023/05/26 04:58:14;;;;;;;20.23;4.10;;;;;;;6.03;100.00;102593.03;7391747;19;20412;-39
2023/05/26 05:00:47;;;;;;;21.63;5.23;;;;;;;5.77;100.00;102595.75;7388454;19;20507;-42
2023/05/26 05:03:16;;;;;;;20.93;5.03;;;;;;;5.72;100.00;102590.22;7391496;19;20452;-38
2023/05/26 05:05:46;;;;;;;13.70;4.23;;;;;;;5.70;100.00;102598.53;7386793;19;20447;-38
2023/05/26 05:08:16;;;;;;;26.77;4.90;;;;;;;5.66;100.00;102582.00;7388409;19;20509;-38
2023/05/26 05:10:46;;;;;;;19.47;5.67;;;;;;;5.64;100.00;102586.09;7387650;19;20506;-37
2023/05/26 05:13:15;;;;;;;26.67;5.63;;;;;;;5.68;100.00;102580.47;7391993;19;20895;-37
2023/05/26 05:15:48;;;;;;;28.93;5.10;;;;;;;5.75;100.00;102584.50;7386533;19;20442;-39
2023/05/26 05:18:18;;;;;;;27.60;5.13;;;;;;;5.79;100.00;102578.84;7398767;19;20405;-39
2023/05/26 05:20:47;;;;;;;29.10;7.47;;;;;;;5.92;100.00;102586.00;7393783;19;20479;-39
2023/05/26 05:23:17;;;;;;;23.50;4.00;;;;;;;5.95;100.00;102581.19;7399971;19;20457;-38
2023/05/26 05:25:47;;;;;;;26.73;5.17;;;;;;;6.01;100.00;102589.38;7393485;19;20441;-39
2023/05/26 05:28:17;;;;;;;26.30;6.00;;;;;;;6.04;100.00;102594.84;7397857;19;20406;-38
2023/05/26 05:30:50;;;;;;;35.00;8.07;;;;;;;6.06;100.00;102590.72;7393445;19;21313;-39
2023/05/26 05:33:19;;;;;;;35.07;6.13;;;;;;;6.26;100.00;102589.03;7396938;19;20427;-39
2023/05/26 05:35:49;;;;;;;28.40;4.70;;;;;;;6.44;100.00;102588.88;7392669;19;20446;-37
2023/05/26 05:38:25;;;;;;;50.03;18.50;;;;;;;6.86;100.00;102595.03;7397175;19;20995;-39
2023/05/26 05:40:54;;;;;;;30.70;7.10;;;;;;;7.03;100.00;102593.94;7392536;19;20458;-38
2023/05/26 05:43:24;;;;;;;34.13;8.73;;;;;;;7.16;100.00;102594.22;7396289;19;20875;-39
2023/05/26 05:45:57;;;;;;;53.20;16.43;;;;;;;7.36;100.00;102615.56;7394661;19;21012;-38
2023/05/26 05:48:26;;;;;;;28.73;7.47;;;;;;;7.43;100.00;102617.88;7395961;19;20752;-40
2023/05/26 05:50:56;;;;;;;32.27;8.00;;;;;;;7.52;100.00;102632.25;7393593;19;20871;-40
2023/05/26 05:53:26;;;;;;;27.80;5.47;;;;;;;7.51;100.00;102643.31;7396768;19;20466;-37
2023/05/26 05:55:55;;;;;;;37.80;10.00;;;;;;;7.60;100.00;102662.06;7396168;19;20449;-38
2023/05/26 05:58:25;;;;;;;29.37;6.03;;;;;;;7.47;100.00;102679.75;7399850;19;21312;-38
2023/05/26 06:00:57;;;;;;;28.27;6.17;;;;;;;7.64;100.00;102694.94;7393483;19;20771;-39
2023/05/26 06:03:27;;;;;;;28.87;6.40;;;;;;;7.75;100.00;102702.66;7396308;19;21046;-39
2023/05/26 06:05:57;;;;;;;27.03;4.97;;;;;;;7.84;100.00;102717.19;7391311;19;20444;-38
2023/05/26 06:08:26;;;;;;;29.33;4.53;;;;;;;7.81;100.00;102734.03;7398703;19;20435;-42
2023/05/26 06:10:56;;;;;;;26.80;5.30;;;;;;;7.91;100.00;102745.97;7394322;19;20431;-38
2023/05/26 06:13:28;;;;;;;23.23;5.07;;;;;;;7.93;100.00;102753.06;7396147;19;20443;-39
2023/05/26 06:16:00;;;;;;;28.50;5.43;;;;;;;8.02;100.00;102747.78;7393447;19;20443;-40
2023/05/26 06:18:30;;;;;;;32.83;6.07;;;;;;;8.02;100.00;102767.44;7397106;19;20440;-39
2023/05/26 06:21:00;;;;;;;76.67;15.90;;;;;;;8.06;100.00;102775.53;7393308;19;20554;-39
2023/05/26 06:23:29;;;;;;;22.47;5.50;;;;;;;8.14;100.00;102791.63;7395837;19;20447;-39
2023/05/26 06:25:59;;;;;;;27.53;5.77;;;;;;;8.33;100.00;102798.31;7391842;19;20446;-41
2023/05/26 06:28:28;;;;;;;17.80;4.03;;;;;;;8.45;100.00;102814.78;7396912;19;20478;-39
2023/05/26 06:31:01;;;;;;;19.70;4.47;;;;;;;8.51;100.00;102830.75;7391093;19;20447;-36
2023/05/26 06:33:30;;;;;;;27.40;4.23;;;;;;;8.48;100.00;102856.22;7393404;19;20812;-41
2023/05/26 06:36:00;;;;;;;21.20;5.57;;;;;;;8.67;100.00;102883.50;7390724;19;20431;-42
2023/05/26 06:38:29;;;;;;;32.60;4.40;;;;;;;8.81;100.00;102888.91;7393545;19;20407;-39
2023/05/26 06:40:59;;;;;;;21.30;3.83;;;;;;;8.72;100.00;102900.22;7389605;19;20439;-41
2023/05/26 06:43:29;;;;;;;16.83;3.90;;;;;;;8.70;100.00;102953.25;7395473;19;20467;-39
2023/05/26 06:46:01;;;;;;;22.97;3.70;;;;;;;8.83;100.00;102982.59;7389336;19;21050;-38
2023/05/26 06:48:30;;;;;;;23.40;5.90;;;;;;;8.93;100.00;103017.75;7394670;19;20411;-39
2023/05/26 06:51:00;;;;;;;20.03;4.00;;;;;;;9.02;100.00;103039.09;7387534;19;20451;-38
2023/05/26 06:53:30;;;;;;;20.27;3.20;;;;;;;9.09;100.00;103069.78;7395360;19;20454;-39
2023/05/26 06:55:59;;;;;;;17.87;3.80;;;;;;;9.27;100.00;103085.88;7389889;19;20524;-38
2023/05/26 06:58:30;;;;;;;21.60;4.07;;;;;;;9.36;100.00;103142.44;7393660;19;20495;-40
2023/05/26 07:01:03;;;;;;;18.40;4.37;;;;;;;9.50;100.00;103192.59;7388354;19;20534;-38
2023/05/26 07:03:33;;;;;;;15.80;4.83;;;;;;;9.57;100.00;103231.00;7393872;19;20846;-38
2023/05/26 07:06:03;;;;;;;21.80;4.10;;;;;;;9.63;100.00;103252.91;7390020;19;20436;-38
2023/05/26 07:08:34;;;;;;;27.90;3.93;;;;;;;9.74;100.00;103280.50;7394781;19;20478;-38
2023/05/26 07:11:04;;;;;;;26.33;3.93;;;;;;;9.91;100.00;103288.78;7391100;19;20514;-38
2023/05/26 07:13:34;;;;;;;20.83;3.90;;;;;;;9.99;100.00;103298.06;7395082;19;20444;-39
2023/05/26 07:16:07;;;;;;;20.20;3.83;;;;;;;10.00;100.00;103317.91;7389586;19;20987;-39
2023/05/26 07:18:37;;;;;;;23.47;4.80;;;;;;;9.86;100.00;103343.41;7396220;19;20429;-38
2023/05/26 07:21:06;;;;;;;20.83;3.63;;;;;;;9.87;100.00;103349.50;7388449;19;20853;-38
2023/05/26 07:23:36;;;;;;;17.60;3.73;;;;;;;9.95;100.00;103345.00;7393885;19;20519;-38
2023/05/26 07:26:06;;;;;;;17.30;3.30;;;;;;;9.91;100.00;103335.19;7391217;19;20858;-38
2023/05/26 07:28:36;;;;;;;26.47;4.27;;;;;;;9.97;100.00;103346.94;7393730;19;20412;-38
2023/05/26 07:31:08;;;;;;;13.77;3.07;;;;;;;10.02;100.00;103349.00;7389501;19;20439;-38
2023/05/26 07:33:37;;;;;;;17.10;3.13;;;;;;;10.02;100.00;103349.91;7393506;19;20801;-39
2023/05/26 07:36:08;;;;;;;21.47;4.23;;;;;;;10.16;100.00;103347.59;7391703;19;20442;-38
2023/05/26 07:38:37;;;;;;;19.67;4.10;;;;;;;10.22;100.00;103340.38;7394233;19;20407;-39
2023/05/26 07:41:07;;;;;;;19.37;3.93;;;;;;;10.11;100.00;103335.19;7389295;19;20443;-39
2023/05/26 07:43:37;;;;;;;17.10;3.20;;;;;;;10.12;100.00;103325.81;7394050;19;20439;-37
2023/05/26 07:46:09;;;;;;;16.80;3.43;;;;;;;10.19;100.00;103329.78;7391372;19;20456;-39
2023/05/26 07:48:39;;;;;;;19.00;4.20;;;;;;;10.35;100.00;103324.22;7395699;19;20440;-40
2023/05/26 07:51:08;;;;;;;17.90;4.37;;;;;;;10.55;100.00;103317.31;7391118;19;20439;-38
2023/05/26 07:53:38;;;;;;;19.73;3.37;;;;;;;10.64;100.00;103316.38;7393914;19;20538;-38
2023/05/26 07:56:08;;;;;;;17.90;3.70;;;;;;;10.60;100.00;103305.66;7390326;19;20479;-38
2023/05/26 07:58:39;;;;;;;13.77;3.30;;;;;;;10.71;100.00;103312.63;7394384;19;20819;-38
2023/05/26 08:01:11;;;;;;;18.60;3.90;;;;;;;10.64;100.00;103282.81;7391378;19;20451;-38
2023/05/26 08:03:40;;;;;;;25.67;3.50;;;;;;;10.55;100.00;103261.41;7393936;19;20455;-38
2023/05/26 08:06:10;;;;;;;14.10;3.53;;;;;;;10.45;100.00;103239.09;7390194;19;20987;-38
2023/05/26 08:08:55;;;;;;;26.43;3.60;;;;;;;10.45;100.00;103241.69;7393973;19;20475;-38
2023/05/26 08:11:25;;;;;;;24.13;4.20;;;;;;;10.59;100.00;103236.75;7390194;19;20452;-38
2023/05/26 08:13:55;;;;;;;16.17;3.60;;;;;;;10.64;100.00;103246.69;7392298;19;20516;-41
2023/05/26 08:16:27;;;;;;;14.07;2.73;;;;;;;10.67;100.00;103248.63;7389401;19;20430;-38
2023/05/26 08:18:57;;;;;;;14.80;3.40;;;;;;;10.73;100.00;103261.09;7392331;19;20401;-41
2023/05/26 08:21:26;;;;;;;30.37;3.77;;;;;;;10.88;100.00;103258.88;7391026;19;20443;-38
2023/05/26 08:23:56;;;;;;;19.67;3.73;;;;;;;11.04;100.00;103248.97;7391598;19;20527;-38
2023/05/26 08:26:25;;;;;;;18.93;3.40;;;;;;;11.31;100.00;103232.94;7390825;19;20472;-39
2023/05/26 08:28:55;;;;;;;21.70;3.63;;;;;;;11.51;100.00;103199.97;7392587;19;20411;-36
2023/05/26 08:31:27;;;;;;;20.60;4.43;;;;;;;11.53;100.00;103167.41;7387727;19;20989;-36
2023/05/26 08:33:57;;;;;;;16.53;3.37;;;;;;;11.69;100.00;103160.00;7390877;19;20458;-38
2023/05/26 08:36:26;;;;;;;17.60;3.53;;;;;;;11.81;100.00;103151.38;7390375;19;20425;-38
2023/05/26 08:38:56;;;;;;;22.90;4.20;;;;;;;11.93;100.00;103103.16;7391612;19;20411;-35
2023/05/26 08:41:26;;;;;;;13.80;3.60;;;;;;;11.71;100.00;103067.97;7388992;19;20864;-37
2023/05/26 08:44:00;;;;;;;19.03;4.57;;;;;;;11.35;100.00;103092.84;7392191;19;20553;-36
2023/05/26 08:46:39;;;;;;;22.00;4.70;;;;;;;11.42;100.00;103143.31;7390617;19;21005;-37
2023/05/26 08:49:10;;;;;;;23.10;3.97;;;;;;;11.73;100.00;103124.94;7391934;19;20414;-37
2023/05/26 08:51:43;;;;;;;17.83;3.70;;;;;;;11.92;100.00;103085.84;7396156;19;20446;-36
2023/05/26 08:54:12;;;;;;;25.13;3.90;;;;;;;12.29;100.00;103113.50;7397982;19;21041;-36
2023/05/26 08:56:42;;;;;;;17.50;4.10;;;;;;;12.01;100.00;103024.41;7398095;19;20550;-37
2023/05/26 08:59:12;;;;;;;16.27;3.80;;;;;;;11.92;100.00;103100.44;7399259;19;20495;-37
2023/05/26 09:01:45;;;;;;;15.43;3.87;;;;;;;11.68;100.00;103088.41;7397169;19;20439;-38
2023/05/26 09:04:15;;;;;;;19.97;3.53;;;;;;;11.64;100.00;103144.94;7397835;19;20442;-37
2023/05/26 09:06:45;;;;;;;22.87;3.47;;;;;;;11.77;100.00;103084.69;7396626;19;20443;-40
2023/05/26 09:09:27;;;;;;;12.43;3.20;;;;;;;12.04;100.00;103083.25;7398422;19;20418;-36
2023/05/26 09:11:57;;;;;;;14.50;3.20;;;;;;;12.28;100.00;102944.41;7395445;19;20999;-37
2023/05/26 09:14:27;;;;;;;13.23;3.53;;;;;;;12.38;100.00;102886.41;7398575;19;20464;-37
2023/05/26 09:17:02;;;;;;;25.50;3.70;;;;;;;12.67;100.00;102959.09;7395372;19;20442;-37
2023/05/26 09:19:32;;;;;;;15.93;4.80;;;;;;;12.43;100.00;102829.75;7398451;19;20422;-37
2023/05/26 09:22:07;;;;;;;18.93;4.33;;;;;;;12.58;100.00;102850.59;7395584;19;20556;-38
2023/05/26 09:24:48;;;;;;;14.07;3.50;;;;;;;13.02;100.00;102908.72;7397844;19;20978;-36
2023/05/26 09:27:19;;;;;;;18.43;3.20;;;;;;;13.14;100.00;102814.44;7396481;19;20846;-37
2023/05/26 09:29:50;;;;;;;23.20;3.60;;;;;;;12.83;100.00;102766.75;7397021;19;20421;-38
2023/05/26 09:32:27;;;;;;;16.93;3.80;;;;;;;12.71;100.00;102864.34;7395248;19;20819;-37
2023/05/26 09:34:58;;;;;;;16.40;4.20;;;;;;;12.76;100.00;102853.50;7396888;19;20451;-36
2023/05/26 09:37:30;;;;;;;13.37;3.60;;;;;;;12.55;100.00;102827.97;7396273;19;20460;-36
2023/05/26 09:40:08;;;;;;;19.53;3.80;;;;;;;12.68;100.00;102832.25;7396839;19;20487;-36
2023/05/26 09:42:39;;;;;;;19.53;4.60;;;;;;;12.50;100.00;102831.94;7399006;19;20452;-37
2023/05/26 09:45:10;;;;;;;19.77;3.40;;;;;;;12.65;100.00;102762.16;7397480;19;20461;-38
2023/05/26 09:47:42;;;;;;;19.03;4.13;;;;;;;12.90;100.00;102768.00;7399572;19;20444;-37
2023/05/26 09:50:12;;;;;;;16.30;4.10;;;;;;;13.19;100.00;102776.75;7399192;19;20487;-36
2023/05/26 09:52:43;;;;;;;17.40;3.70;;;;;;;13.37;100.00;102676.81;7397891;19;20526;-36
2023/05/26 09:55:12;;;;;;;16.00;4.03;;;;;;;13.45;100.00;102655.63;7393748;19;20456;-34
2023/05/26 09:57:42;;;;;;;18.00;3.73;;;;;;;13.29;100.00;102628.78;7396999;19;20409;-38
2023/05/26 10:00:13;;;;;;;10.70;3.23;;;;;;;13.45;100.00;102638.38;7397371;19;20471;-36
2023/05/26 10:02:46;;;;;;;16.90;3.70;;;;;;;13.34;100.00;102559.94;7397575;19;20528;-38
2023/05/26 10:05:16;;;;;;;17.10;4.00;;;;;;;13.45;100.00;102562.28;7394021;19;20462;-38
2023/05/26 10:07:47;;;;;;;13.60;3.70;;;;;;;13.49;100.00;102590.22;7397161;19;20490;-37
2023/05/26 10:10:18;;;;;;;19.73;5.07;;;;;;;13.53;100.00;102555.88;7393454;19;20482;-37
2023/05/26 10:12:48;;;;;;;23.43;4.37;;;;;;;13.20;100.00;102560.84;7395977;19;20415;-39
2023/05/26 10:15:18;;;;;;;14.60;4.07;;;;;;;13.34;100.00;102627.34;7393408;19;20989;-36
2023/05/26 10:17:51;;;;;;;18.53;4.27;;;;;;;13.12;100.00;102614.78;7396941;19;20406;-37
2023/05/26 10:20:21;;;;;;;18.67;3.90;;;;;;;13.43;100.00;102585.53;7395650;19;20412;-36
2023/05/26 10:22:55;;;;;;;17.07;4.30;;;;;;;13.83;100.00;102576.63;7396512;19;20399;-36
2023/05/26 10:25:31;;;;;;;18.33;4.47;;;;;;;13.52;100.00;102522.09;7391924;19;21002;-38
2023/05/26 10:28:07;;;;;;;19.00;4.47;;;;;;;13.24;100.00;102542.97;7395606;19;20410;-37
2023/05/26 10:30:37;;;;;;;17.97;4.50;;;;;;;13.57;100.00;102581.19;7392860;19;20437;-37
2023/05/26 10:33:14;;;;;;;11.80;3.97;;;;;;;14.02;100.00;102541.34;7395102;19;20407;-37
2023/05/26 10:35:56;;;;;;;15.40;3.33;;;;;;;13.79;100.00;102519.28;7393409;19;20470;-37
2023/05/26 10:38:30;;;;;;;20.57;4.50;;;;;;;13.80;100.00;102501.22;7395098;19;20765;-37
2023/05/26 10:40:59;;;;;;;15.60;3.97;;;;;;;13.74;100.00;102543.25;7391160;19;20914;-36
2023/05/26 10:43:30;;;;;;;17.97;4.47;;;;;;;13.50;100.00;102522.00;7394064;19;20443;-37
2023/05/26 10:46:01;;;;;;;22.20;4.67;;;;;;;13.32;100.00;102561.56;7391028;19;20457;-36
2023/05/26 10:48:40;;;;;;;22.23;4.07;;;;;;;13.59;100.00;102569.19;7392421;19;20515;-36
2023/05/26 10:51:17;;;;;;;18.50;3.93;;;;;;;13.89;100.00;102633.16;7392099;19;20541;-36
2023/05/26 10:53:48;;;;;;;21.60;5.10;;;;;;;13.93;100.00;102552.09;7395529;19;20450;-36
2023/05/26 10:56:25;;;;;;;13.43;6.03;;;;;;;14.10;100.00;102488.16;7392496;19;20880;-37
2023/05/26 10:58:59;;;;;;;13.53;4.00;;;;;;;13.68;100.00;102497.94;7395655;19;20413;-37
2023/05/26 11:01:33;;;;;;;19.30;5.07;;;;;;;13.46;100.00;102504.47;7391188;19;20447;-37
2023/05/26 11:04:12;;;;;;;22.93;7.13;;;;;;;13.57;100.00;102518.97;7394298;19;20444;-37
2023/05/26 11:06:47;;;;;;;25.40;7.40;;;;;;;14.12;100.00;102528.06;7392867;19;20460;-37
2023/05/26 11:09:17;;;;;;;33.27;13.40;;;;;;;14.12;100.00;102465.78;7394885;19;20403;-37
2023/05/26 11:11:55;;;;;;;21.80;8.43;;;;;;;13.83;100.00;102471.94;7393687;19;20802;-38
2023/05/26 11:14:26;;;;;;;28.03;11.67;;;;;;;13.72;100.00;102515.44;7390976;19;20512;-38
2023/05/26 11:16:59;;;;;;;21.80;5.77;;;;;;;13.76;100.00;102530.38;7390952;19;20441;-37
2023/05/26 11:19:33;;;;;;;19.43;4.57;;;;;;;13.77;100.00;102485.47;7395874;19;20741;-37
2023/05/26 11:22:04;;;;;;;19.53;5.03;;;;;;;13.83;100.00;102480.63;7390012;19;20530;-36
2023/05/26 11:24:35;;;;;;;25.00;5.20;;;;;;;13.91;100.00;102544.22;7393927;19;20869;-37
2023/05/26 11:27:05;;;;;;;36.40;14.10;;;;;;;13.71;100.00;102534.41;7392358;19;20997;-37
2023/05/26 11:29:35;;;;;;;27.50;5.67;;;;;;;13.55;100.00;102517.06;7395066;19;20429;-37
2023/05/26 11:32:06;;;;;;;71.27;28.77;;;;;;;13.69;100.00;102573.22;7390298;19;20436;-37